Time;durP1;ratioP1;P1;durP2;ratioP2;P2;SDS_P1;SDS_P2;PMS_P1;PMS_P2;Temp;Humidity;BMP_temperature;BMP_pressure;BME280_temperature;BME280_humidity;BME280_pressure;Samples;Min_cycle;Max_cycle;Signal;HPM_P1;HPM_P2
2021/12/15 00:01:45;;;;;;;17.25;10.27;;;7.20;99.90;;;;;;4969108;29;20031;-83
2021/12/15 00:04:12;;;;;;;16.30;9.57;;;7.20;99.90;;;;;;4968869;28;20027;-83
2021/12/15 00:06:39;;;;;;;14.20;9.55;;;7.20;99.90;;;;;;4970920;28;20047;-81
2021/12/15 00:09:08;;;;;;;15.95;10.18;;;7.20;99.90;;;;;;4967904;28;20090;-83
2021/12/15 00:11:36;;;;;;;17.83;10.27;;;7.20;99.90;;;;;;4963208;28;20059;-83
2021/12/15 00:14:07;;;;;;;16.75;10.15;;;7.20;99.90;;;;;;4962620;28;20058;-82
2021/12/15 00:16:33;;;;;;;18.88;10.80;;;7.20;99.90;;;;;;4962126;28;20042;-83
2021/12/15 00:18:59;;;;;;;20.13;11.68;;;7.20;99.90;;;;;;4962480;28;20427;-84
2021/12/15 00:21:25;;;;;;;21.52;11.88;;;7.20;99.90;;;;;;4962800;28;20031;-83
2021/12/15 00:23:51;;;;;;;23.42;12.48;;;7.20;99.90;;;;;;4962792;29;20031;-83
2021/12/15 00:26:18;;;;;;;21.67;12.85;;;7.20;99.90;;;;;;4963912;28;20031;-85
2021/12/15 00:28:45;;;;;;;22.92;12.90;;;7.20;99.90;;;;;;4963929;29;20038;-82
2021/12/15 00:31:12;;;;;;;25.60;14.85;;;7.20;99.90;;;;;;4967103;29;20031;-83
2021/12/15 00:33:40;;;;;;;24.10;14.48;;;7.20;99.90;;;;;;4969670;28;20038;-83
2021/12/15 00:36:06;;;;;;;26.38;14.15;;;7.20;99.90;;;;;;4976658;28;20031;-84
2021/12/15 00:38:32;;;;;;;27.20;15.15;;;7.20;99.90;;;;;;4980296;28;20047;-81
2021/12/15 00:40:58;;;;;;;27.00;15.20;;;7.20;99.90;;;;;;4979185;28;20060;-79
2021/12/15 00:43:24;;;;;;;25.13;14.30;;;7.20;99.90;;;;;;4978078;28;20016;-82
2021/12/15 00:45:50;;;;;;;26.88;12.88;;;7.20;99.90;;;;;;4978970;28;20024;-81
2021/12/15 00:48:17;;;;;;;25.38;12.88;;;7.10;99.90;;;;;;4978680;28;20025;-83
2021/12/15 00:50:45;;;;;;;22.73;12.65;;;7.10;99.90;;;;;;4978966;28;20085;-80
2021/12/15 00:53:12;;;;;;;21.05;12.73;;;7.00;99.90;;;;;;4978391;28;20027;-81
2021/12/15 00:55:38;;;;;;;22.73;12.98;;;7.00;99.90;;;;;;4979229;28;20011;-81
2021/12/15 00:58:06;;;;;;;21.38;11.90;;;7.00;99.90;;;;;;4978655;28;20048;-81
2021/12/15 01:00:39;;;;;;;23.83;12.27;;;7.00;99.90;;;;;;4962719;28;20043;-81
2021/12/15 01:03:06;;;;;;;24.42;12.73;;;6.90;99.90;;;;;;4979016;28;20019;-81
2021/12/15 01:05:35;;;;;;;23.60;12.88;;;7.00;99.90;;;;;;4978408;28;20035;-80
2021/12/15 01:08:06;;;;;;;22.33;12.80;;;6.90;99.90;;;;;;5020723;23;20027;-88
2021/12/15 01:10:53;;;;;;;21.00;12.40;;;6.90;99.90;;;;;;5017815;28;20023;-86
2021/12/15 01:21:34;;;;;;;24.65;13.68;;;6.80;99.90;;;;;;5018223;28;20122;-87
2021/12/15 01:24:02;;;;;;;24.67;13.65;;;6.80;99.90;;;;;;5001953;28;20082;-87
2021/12/15 01:26:30;;;;;;;25.25;13.43;;;6.80;99.90;;;;;;5018176;28;20057;-88
2021/12/15 01:28:55;;;;;;;23.25;13.30;;;6.80;99.90;;;;;;5011469;28;20026;-88
2021/12/15 01:31:21;;;;;;;24.33;13.57;;;6.80;99.90;;;;;;5012662;28;20034;-90
2021/12/15 01:33:47;;;;;;;26.70;14.00;;;6.80;99.90;;;;;;4987525;28;20520;-88
2021/12/15 01:36:15;;;;;;;21.40;12.63;;;6.80;99.90;;;;;;5003863;28;20034;-89
2021/12/15 01:38:43;;;;;;;22.48;12.70;;;6.80;99.90;;;;;;4989125;28;20037;-89
2021/12/15 01:41:19;;;;;;;21.77;12.88;;;6.80;99.90;;;;;;5010104;28;20069;-88
2021/12/15 01:46:52;;;;;;;23.38;12.48;;;6.80;99.90;;;;;;5000703;28;20061;-88
2021/12/15 01:46:56;;;;;;;25.73;12.35;;;6.90;99.90;;;;;;5016500;28;20033;-88
2021/12/15 01:49:39;;;;;;;20.67;12.13;;;6.90;99.90;;;;;;5008719;28;20039;-89
2021/12/15 01:52:21;;;;;;;19.33;11.73;;;7.00;99.90;;;;;;5008724;28;20034;-88
2021/12/15 01:54:51;;;;;;;19.00;11.85;;;7.00;99.90;;;;;;5012337;28;20030;-87
2021/12/15 01:57:20;;;;;;;20.33;11.90;;;7.00;99.90;;;;;;5018194;28;20041;-89
2021/12/15 01:59:48;;;;;;;19.17;11.57;;;7.00;99.90;;;;;;5014253;28;20050;-88
2021/12/15 02:02:17;;;;;;;18.02;11.73;;;7.00;99.90;;;;;;5012400;28;20054;-89
2021/12/15 02:04:43;;;;;;;20.60;12.15;;;6.90;99.90;;;;;;5016024;28;20030;-88
2021/12/15 02:07:15;;;;;;;21.23;11.65;;;6.90;99.90;;;;;;5016533;28;20056;-87
2021/12/15 02:12:30;;;;;;;20.15;11.02;;;7.00;99.90;;;;;;5012321;28;20042;-86
2021/12/15 02:14:58;;;;;;;20.98;11.85;;;6.90;99.90;;;;;;5013110;28;20166;-87
2021/12/15 02:17:25;;;;;;;21.10;11.85;;;6.90;99.90;;;;;;5017399;28;20006;-88
2021/12/15 02:19:51;;;;;;;20.95;12.00;;;6.90;99.90;;;;;;5018082;28;20026;-87
2021/12/15 02:22:18;;;;;;;19.10;11.77;;;6.90;99.90;;;;;;5018030;28;20073;-87
2021/12/15 02:24:47;;;;;;;21.23;13.13;;;6.90;99.90;;;;;;5003884;28;20011;-85
2021/12/15 02:27:14;;;;;;;24.88;14.00;;;6.80;99.90;;;;;;5020244;28;20054;-85
2021/12/15 02:29:44;;;;;;;22.30;13.27;;;6.90;99.90;;;;;;5003763;28;20014;-85
2021/12/15 02:32:29;;;;;;;21.88;12.63;;;6.90;99.90;;;;;;5020621;28;20019;-86
2021/12/15 02:37:03;;;;;;;23.63;13.85;;;6.90;99.90;;;;;;5020006;28;20053;-86
2021/12/15 02:37:41;;;;;;;23.48;13.13;;;6.90;99.90;;;;;;5019808;28;20030;-86
2021/12/15 02:40:11;;;;;;;23.77;13.65;;;6.90;99.90;;;;;;5019750;28;20029;-86
2021/12/15 02:42:45;;;;;;;25.35;13.40;;;6.90;99.90;;;;;;5020350;28;20033;-85
2021/12/15 02:45:15;;;;;;;22.80;12.82;;;6.90;99.90;;;;;;5020475;28;20028;-85
2021/12/15 02:47:41;;;;;;;21.23;12.38;;;6.90;99.90;;;;;;5021094;28;20011;-89
2021/12/15 02:50:13;;;;;;;21.70;13.25;;;6.80;99.90;;;;;;5004131;28;20034;-89
2021/12/15 02:52:39;;;;;;;22.20;13.63;;;6.90;99.90;;;;;;5021055;28;20033;-88
2021/12/15 02:55:07;;;;;;;23.63;12.60;;;6.90;99.90;;;;;;5004108;28;20018;-87
2021/12/15 02:57:34;;;;;;;21.27;13.27;;;6.90;99.90;;;;;;5020118;28;20018;-89
2021/12/15 03:00:06;;;;;;;23.02;13.50;;;6.90;99.90;;;;;;5018660;28;20026;-88
2021/12/15 03:05:31;;;;;;;25.73;14.15;;;6.90;99.90;;;;;;5020110;28;20018;-88
2021/12/15 03:15:56;;;;;;;22.88;13.10;;;7.00;99.90;;;;;;5019187;28;20110;-88
2021/12/15 03:18:27;;;;;;;23.75;13.98;;;7.00;99.90;;;;;;5019335;28;20014;-89
2021/12/15 03:20:59;;;;;;;19.90;11.73;;;7.00;99.90;;;;;;5019056;28;20030;-88
2021/12/15 03:23:48;;;;;;;21.10;13.02;;;7.00;99.90;;;;;;5018934;28;20022;-89
2021/12/15 03:26:18;;;;;;;22.67;13.05;;;7.00;99.90;;;;;;5002650;28;20019;-88
2021/12/15 03:37:21;;;;;;;20.83;12.73;;;7.00;99.90;;;;;;5018928;28;20090;-89
2021/12/15 03:39:52;;;;;;;18.55;11.57;;;7.00;99.90;;;;;;5001974;28;20039;-89
2021/12/15 03:42:25;;;;;;;19.65;11.57;;;7.00;99.90;;;;;;5018006;28;20123;-88
2021/12/15 03:44:51;;;;;;;21.00;12.38;;;7.00;99.90;;;;;;5018422;28;20086;-90
2021/12/15 03:47:22;;;;;;;21.95;12.43;;;7.00;99.90;;;;;;5018424;28;20034;-89
2021/12/15 03:49:50;;;;;;;19.48;12.23;;;7.00;99.90;;;;;;5018330;28;20049;-89
2021/12/15 03:52:16;;;;;;;20.00;10.95;;;7.10;99.90;;;;;;5001810;28;20118;-88
2021/12/15 03:54:43;;;;;;;20.30;11.82;;;7.00;99.90;;;;;;5018181;28;20046;-88
2021/12/15 03:57:09;;;;;;;17.48;10.95;;;7.00;99.90;;;;;;5018380;28;20014;-88
2021/12/15 03:59:40;;;;;;;18.80;11.38;;;7.00;99.90;;;;;;5018801;28;20010;-89
2021/12/15 04:02:07;;;;;;;15.30;9.55;;;7.00;99.90;;;;;;5017812;28;20034;-89
2021/12/15 04:04:33;;;;;;;18.73;10.93;;;7.00;99.90;;;;;;5018590;28;20035;-89
2021/12/15 04:06:59;;;;;;;18.45;11.00;;;6.90;99.90;;;;;;5001402;28;20024;-89
2021/12/15 04:09:24;;;;;;;17.95;11.18;;;6.90;99.90;;;;;;5017707;28;20038;-90
2021/12/15 04:11:52;;;;;;;16.83;10.68;;;6.90;99.90;;;;;;5017772;28;20034;-88
2021/12/15 04:14:22;;;;;;;19.48;10.85;;;6.90;99.90;;;;;;5001557;28;20134;-89
2021/12/15 04:19:45;;;;;;;16.85;10.48;;;6.90;99.90;;;;;;5013577;28;20030;-89
2021/12/15 04:22:11;;;;;;;15.45;9.50;;;6.90;99.90;;;;;;5017537;28;20042;-89
2021/12/15 04:24:37;;;;;;;16.55;9.57;;;6.90;99.90;;;;;;5017682;28;20049;-89
2021/12/15 04:27:03;;;;;;;13.82;9.07;;;6.90;99.90;;;;;;5017900;28;20037;-88
2021/12/15 04:29:30;;;;;;;16.40;9.40;;;6.90;99.90;;;;;;5018007;28;20046;-86
2021/12/15 04:32:00;;;;;;;15.27;9.35;;;6.90;99.90;;;;;;5001207;28;20085;-89
2021/12/15 04:34:27;;;;;;;13.82;9.18;;;6.90;99.90;;;;;;5001103;28;20034;-88
2021/12/15 04:36:53;;;;;;;14.00;8.68;;;6.90;99.90;;;;;;5017753;28;20018;-88
2021/12/15 04:39:23;;;;;;;14.60;9.07;;;7.00;99.90;;;;;;5017375;28;20033;-89
2021/12/15 04:41:51;;;;;;;16.60;9.90;;;7.00;99.90;;;;;;5018009;28;20134;-88
2021/12/15 04:44:21;;;;;;;13.93;9.27;;;7.00;99.90;;;;;;5017370;28;20022;-89
2021/12/15 04:46:58;;;;;;;13.50;8.57;;;7.00;99.90;;;;;;5017881;28;20038;-90
2021/12/15 04:49:25;;;;;;;14.85;9.60;;;7.00;99.90;;;;;;5018203;28;20042;-89
2021/12/15 04:51:51;;;;;;;14.82;8.90;;;7.00;99.90;;;;;;5017207;28;20030;-89
2021/12/15 04:54:18;;;;;;;17.15;9.98;;;7.00;99.90;;;;;;5017515;28;20031;-89
2021/12/15 04:56:45;;;;;;;14.43;9.77;;;7.00;99.90;;;;;;5018107;28;20034;-89
2021/12/15 04:59:12;;;;;;;15.00;9.70;;;7.00;99.90;;;;;;5017639;28;20019;-89
2021/12/15 05:01:38;;;;;;;15.60;9.70;;;7.00;99.90;;;;;;5018039;28;20049;-89
2021/12/15 05:04:05;;;;;;;14.25;8.23;;;7.00;99.90;;;;;;5018042;28;20014;-89
2021/12/15 05:06:40;;;;;;;18.13;9.15;;;7.00;99.90;;;;;;5017540;28;20091;-89
2021/12/15 05:09:15;;;;;;;16.38;9.43;;;7.00;99.90;;;;;;5002653;28;20015;-90
2021/12/15 05:11:47;;;;;;;16.75;9.35;;;7.00;99.90;;;;;;5001687;28;20019;-88
2021/12/15 05:14:14;;;;;;;14.20;8.90;;;7.00;99.90;;;;;;5001136;28;20091;-88
2021/12/15 05:16:40;;;;;;;12.82;8.25;;;7.00;99.90;;;;;;5017643;28;20014;-88
2021/12/15 05:19:07;;;;;;;14.90;8.93;;;6.90;99.90;;;;;;5017447;28;20033;-89
2021/12/15 05:21:33;;;;;;;13.80;8.60;;;6.90;99.90;;;;;;5018075;28;20049;-88
2021/12/15 05:24:14;;;;;;;17.95;9.55;;;7.00;99.90;;;;;;5020526;28;20038;-90
2021/12/15 05:26:44;;;;;;;15.27;9.05;;;7.00;99.90;;;;;;5005188;28;20098;-89
2021/12/15 05:29:10;;;;;;;13.98;9.32;;;7.00;99.90;;;;;;5004984;28;20010;-89
2021/12/15 05:31:39;;;;;;;16.15;9.55;;;7.00;99.90;;;;;;5021399;28;20042;-89
2021/12/15 05:34:05;;;;;;;13.93;9.10;;;7.00;99.90;;;;;;5022015;28;20017;-90
2021/12/15 05:36:35;;;;;;;13.60;8.77;;;7.10;99.90;;;;;;5005345;28;20033;-89
2021/12/15 05:39:06;;;;;;;15.82;9.77;;;7.10;99.90;;;;;;5021642;28;20094;-87
2021/12/15 05:41:38;;;;;;;15.13;8.82;;;7.10;99.90;;;;;;5021454;28;20073;-90
2021/12/15 05:44:07;;;;;;;17.83;10.35;;;7.10;99.90;;;;;;5022167;28;20153;-89
2021/12/15 05:46:33;;;;;;;16.52;10.38;;;7.10;99.90;;;;;;5021934;28;20018;-90
2021/12/15 05:49:04;;;;;;;14.57;9.48;;;7.10;99.90;;;;;;5005448;28;20018;-91
2021/12/15 05:51:31;;;;;;;14.10;9.10;;;7.20;99.90;;;;;;5021729;28;20018;-89
2021/12/15 05:54:01;;;;;;;17.60;9.90;;;7.10;99.90;;;;;;5005442;28;20030;-89
2021/12/15 05:56:30;;;;;;;16.83;9.57;;;7.10;99.90;;;;;;5021057;28;20014;-89
2021/12/15 05:58:59;;;;;;;18.40;10.27;;;7.20;99.90;;;;;;5021087;28;20038;-90
2021/12/15 06:01:27;;;;;;;19.83;10.73;;;7.20;99.90;;;;;;5004811;28;20038;-88
2021/12/15 06:03:53;;;;;;;17.75;10.45;;;7.20;99.90;;;;;;5021543;28;20018;-89
2021/12/15 06:06:19;;;;;;;18.55;10.65;;;7.20;99.90;;;;;;5020365;28;20065;-89
2021/12/15 06:08:45;;;;;;;18.42;10.70;;;7.20;99.90;;;;;;5019956;28;20051;-89
2021/12/15 06:11:12;;;;;;;17.98;10.77;;;7.20;99.90;;;;;;5019307;28;20089;-88
2021/12/15 06:13:38;;;;;;;18.33;10.48;;;7.20;99.90;;;;;;5020553;28;20083;-89
2021/12/15 06:16:06;;;;;;;19.77;11.10;;;7.20;99.90;;;;;;5020145;28;20051;-89
2021/12/15 06:18:34;;;;;;;20.10;10.65;;;7.20;99.90;;;;;;5021285;28;20030;-89
2021/12/15 06:21:00;;;;;;;22.30;11.27;;;7.10;99.90;;;;;;5021095;28;20061;-88
2021/12/15 06:23:28;;;;;;;19.98;10.73;;;7.10;99.90;;;;;;5004348;28;20018;-89
2021/12/15 06:25:57;;;;;;;17.33;10.70;;;7.10;99.90;;;;;;5020332;28;20022;-90
2021/12/15 06:28:26;;;;;;;19.05;10.98;;;7.00;99.90;;;;;;5020829;28;20018;-90
2021/12/15 06:30:53;;;;;;;18.75;11.52;;;7.00;99.90;;;;;;5019804;28;20022;-90
2021/12/15 06:33:21;;;;;;;21.08;11.23;;;7.10;99.90;;;;;;5019493;28;20014;-90
2021/12/15 06:35:59;;;;;;;19.67;11.23;;;7.00;99.90;;;;;;5019005;28;20030;-91
2021/12/15 06:38:32;;;;;;;19.90;11.02;;;7.10;99.90;;;;;;5019619;28;20053;-90
2021/12/15 06:40:58;;;;;;;18.70;10.73;;;7.10;99.90;;;;;;5018373;28;20038;-89
2021/12/15 06:43:25;;;;;;;17.95;11.30;;;7.10;99.90;;;;;;5017726;28;20029;-90
2021/12/15 06:59:36;;;;;;;21.25;12.02;;;7.10;99.90;;;;;;5019881;28;20022;-90
2021/12/15 07:02:03;;;;;;;19.20;11.00;;;7.10;99.90;;;;;;5002262;28;20038;-91
2021/12/15 07:05:07;;;;;;;21.90;11.85;;;7.10;99.90;;;;;;5018094;28;20026;-90
2021/12/15 07:07:35;;;;;;;39.97;20.27;;;7.10;99.90;;;;;;5074410;23;20043;-83
2021/12/15 07:10:02;;;;;;;24.08;12.25;;;7.20;99.90;;;;;;4984215;28;20019;-85
2021/12/15 07:12:28;;;;;;;20.63;10.63;;;7.30;99.90;;;;;;4986110;28;20058;-87
2021/12/15 07:14:54;;;;;;;21.75;12.20;;;7.40;99.90;;;;;;4992501;28;20109;-85
2021/12/15 07:17:23;;;;;;;21.55;11.55;;;7.40;99.90;;;;;;4980177;28;20031;-87
2021/12/15 07:22:48;;;;;;;22.75;12.30;;;7.50;99.90;;;;;;4966487;29;20033;-84
2021/12/15 07:25:14;;;;;;;19.73;12.00;;;7.50;99.90;;;;;;4964081;28;20043;-88
2021/12/15 07:27:41;;;;;;;20.45;11.05;;;7.50;99.90;;;;;;4964483;28;20091;-84
2021/12/15 07:30:09;;;;;;;19.08;10.40;;;7.50;99.90;;;;;;4967297;28;20078;-86
2021/12/15 07:32:35;;;;;;;19.77;10.60;;;7.50;99.90;;;;;;4964061;29;20027;-85
2021/12/15 07:35:02;;;;;;;17.33;10.20;;;7.50;99.90;;;;;;4965098;28;20043;-87
2021/12/15 07:37:28;;;;;;;20.77;10.82;;;7.40;99.90;;;;;;4964549;28;20391;-86
2021/12/15 07:39:57;;;;;;;16.55;9.75;;;7.40;99.90;;;;;;4977769;28;20043;-85
2021/12/15 07:42:33;;;;;;;20.23;10.57;;;7.40;99.90;;;;;;4970914;28;20091;-85
2021/12/15 07:45:00;;;;;;;22.40;10.75;;;7.30;99.90;;;;;;4973120;28;20082;-83
2021/12/15 07:47:25;;;;;;;18.80;10.73;;;7.30;99.90;;;;;;4977637;28;20071;-84
2021/12/15 07:49:54;;;;;;;18.02;10.30;;;7.30;99.90;;;;;;4976265;28;20015;-83
2021/12/15 07:52:21;;;;;;;17.52;10.55;;;7.30;99.90;;;;;;4974916;28;20046;-84
2021/12/15 07:54:46;;;;;;;20.25;11.23;;;7.30;99.90;;;;;;4971462;28;20027;-82
2021/12/15 07:57:17;;;;;;;19.27;10.40;;;7.30;99.90;;;;;;4994244;28;20023;-83
2021/12/15 07:59:43;;;;;;;20.33;10.88;;;7.30;99.90;;;;;;4978445;28;20033;-84
2021/12/15 08:02:09;;;;;;;20.00;11.80;;;7.30;99.90;;;;;;4959565;28;20048;-84
2021/12/15 08:04:35;;;;;;;19.08;11.25;;;7.40;99.90;;;;;;4964378;28;20023;-84
2021/12/15 08:07:01;;;;;;;20.58;10.63;;;7.40;99.90;;;;;;4978209;28;20030;-83
2021/12/15 08:09:27;;;;;;;21.55;10.68;;;7.50;99.90;;;;;;4975004;28;20031;-83
2021/12/15 08:11:52;;;;;;;20.27;11.23;;;7.60;99.90;;;;;;4959158;28;20032;-84
2021/12/15 08:14:18;;;;;;;19.70;10.80;;;7.60;99.90;;;;;;4978898;28;20095;-82
2021/12/15 08:16:44;;;;;;;20.95;11.48;;;7.70;99.90;;;;;;4978169;28;20019;-83
2021/12/15 08:19:15;;;;;;;21.00;11.52;;;7.70;99.90;;;;;;4978185;28;20027;-82
2021/12/15 08:21:40;;;;;;;18.08;10.07;;;7.70;99.90;;;;;;4993255;28;20065;-82
2021/12/15 08:24:09;;;;;;;18.85;10.27;;;7.80;99.90;;;;;;4977055;28;20035;-85
2021/12/15 08:26:35;;;;;;;19.08;10.45;;;7.90;99.90;;;;;;4976801;28;20031;-84
2021/12/15 08:29:02;;;;;;;18.85;10.65;;;7.90;99.90;;;;;;4972161;28;20032;-84
2021/12/15 08:31:28;;;;;;;17.40;10.27;;;8.10;99.90;;;;;;4971589;28;20028;-85
2021/12/15 08:33:54;;;;;;;16.88;10.35;;;8.10;99.90;;;;;;4969003;28;20007;-84
2021/12/15 08:36:19;;;;;;;20.30;10.80;;;8.10;99.90;;;;;;4978300;28;20019;-84
2021/12/15 08:38:48;;;;;;;14.73;9.52;;;8.20;99.90;;;;;;4977528;28;20030;-83
2021/12/15 08:41:18;;;;;;;20.35;10.65;;;8.30;99.90;;;;;;4977844;28;20042;-83
2021/12/15 08:43:45;;;;;;;18.45;10.85;;;8.40;99.90;;;;;;4961609;28;20090;-83
2021/12/15 08:46:18;;;;;;;16.83;10.50;;;8.50;99.90;;;;;;4972018;28;20020;-83
2021/12/15 08:48:44;;;;;;;17.23;9.98;;;8.60;99.90;;;;;;4969586;28;20024;-83
2021/12/15 08:51:12;;;;;;;21.13;11.25;;;8.50;99.90;;;;;;4993220;28;20012;-82
2021/12/15 08:53:41;;;;;;;17.85;10.73;;;8.60;99.90;;;;;;4977471;28;20023;-86
2021/12/15 08:56:08;;;;;;;20.38;10.55;;;8.60;99.90;;;;;;4978327;28;20022;-84
2021/12/15 08:58:35;;;;;;;19.30;11.10;;;8.60;99.90;;;;;;4964883;28;20030;-85
2021/12/15 09:01:03;;;;;;;19.85;11.20;;;8.60;99.90;;;;;;4963172;28;20024;-82
2021/12/15 09:03:31;;;;;;;20.58;11.77;;;8.60;99.90;;;;;;4963460;28;20019;-83
2021/12/15 09:06:00;;;;;;;20.38;10.80;;;8.60;99.90;;;;;;4963353;28;20050;-83
2021/12/15 09:08:27;;;;;;;23.27;11.50;;;8.60;99.90;;;;;;4963290;28;20075;-83
2021/12/15 09:10:56;;;;;;;20.63;11.77;;;8.40;99.90;;;;;;4962925;28;20012;-83
2021/12/15 09:13:29;;;;;;;22.33;11.43;;;8.40;99.90;;;;;;4957291;28;20448;-84
2021/12/15 09:15:56;;;;;;;22.40;11.68;;;8.40;99.90;;;;;;4949201;29;20032;-83
2021/12/15 09:18:22;;;;;;;19.33;11.45;;;8.50;99.90;;;;;;4963156;28;20015;-84
2021/12/15 09:20:49;;;;;;;19.73;10.98;;;8.50;99.90;;;;;;4982130;28;20039;-82
2021/12/15 09:23:17;;;;;;;23.45;12.15;;;8.50;99.90;;;;;;4980608;28;20042;-82
2021/12/15 09:25:45;;;;;;;21.25;12.10;;;8.50;99.90;;;;;;4979568;28;20031;-82
2021/12/15 09:28:11;;;;;;;22.20;11.85;;;8.50;99.90;;;;;;4977218;28;20019;-82
2021/12/15 09:30:44;;;;;;;23.85;12.88;;;8.50;99.90;;;;;;4974498;28;20033;-82
2021/12/15 09:33:13;;;;;;;20.67;10.67;;;8.60;99.90;;;;;;4978454;28;20058;-85
2021/12/15 09:35:39;;;;;;;25.83;13.25;;;8.70;99.90;;;;;;4982442;28;20042;-83
2021/12/15 09:38:12;;;;;;;17.80;10.05;;;8.70;99.90;;;;;;4996946;28;20053;-83
2021/12/15 09:40:40;;;;;;;19.63;11.40;;;8.70;99.90;;;;;;4981444;28;20043;-83
2021/12/15 09:43:07;;;;;;;19.65;11.15;;;8.60;99.90;;;;;;4996381;28;20015;-82
2021/12/15 10:04:34;;;;;;;19.50;10.85;;;8.40;99.90;;;;;;4988419;28;20018;-83
2021/12/15 10:18:09;;;;;;;18.23;10.45;;;8.30;99.90;;;;;;4967369;28;20042;-85
2021/12/15 10:20:38;;;;;;;20.85;10.05;;;8.30;99.90;;;;;;4962340;29;20107;-86
2021/12/15 10:23:12;;;;;;;20.52;9.48;;;8.40;99.90;;;;;;4970141;28;20027;-85
2021/12/15 10:25:47;;;;;;;15.07;9.23;;;8.30;99.90;;;;;;4977525;28;20218;-85
2021/12/15 10:28:19;;;;;;;18.50;9.65;;;8.40;99.90;;;;;;4979299;28;20019;-86
2021/12/15 10:30:52;;;;;;;14.18;8.40;;;8.60;99.90;;;;;;4978362;29;20035;-85
2021/12/15 10:33:34;;;;;;;14.27;8.50;;;8.80;99.90;;;;;;4991341;28;20099;-87
2021/12/15 10:36:10;;;;;;;14.05;8.73;;;9.00;99.90;;;;;;4971760;28;20031;-87
2021/12/15 10:38:44;;;;;;;14.93;8.98;;;9.00;99.90;;;;;;4993504;28;20023;-87
2021/12/15 10:41:20;;;;;;;17.53;10.53;;;8.90;99.90;;;;;;4969068;28;20036;-85
2021/12/15 10:43:55;;;;;;;15.20;9.00;;;8.80;99.90;;;;;;4970514;28;20834;-85
2021/12/15 10:46:31;;;;;;;16.15;9.02;;;8.70;99.90;;;;;;4967637;29;20054;-85
2021/12/15 10:49:00;;;;;;;13.57;8.15;;;8.60;99.90;;;;;;4958684;29;20047;-85
2021/12/15 10:51:35;;;;;;;13.15;7.97;;;8.50;99.90;;;;;;4966899;28;20487;-86
2021/12/15 10:54:31;;;;;;;15.50;8.73;;;8.40;99.90;;;;;;4964692;28;20029;-87
2021/12/15 10:57:09;;;;;;;18.45;8.80;;;8.30;99.90;;;;;;4956800;28;20393;-85
2021/12/15 10:59:39;;;;;;;12.25;7.55;;;8.30;99.90;;;;;;4964805;28;20058;-87
2021/12/15 11:02:16;;;;;;;14.95;8.70;;;8.30;99.90;;;;;;4962073;28;20046;-87
2021/12/15 11:04:45;;;;;;;13.15;8.00;;;8.40;99.90;;;;;;4963481;28;20042;-88
2021/12/15 11:07:25;;;;;;;13.10;7.57;;;8.50;99.90;;;;;;4964537;28;20526;-85
2021/12/15 11:09:54;;;;;;;11.50;7.47;;;8.70;99.90;;;;;;4968646;28;20031;-84
2021/12/15 11:12:38;;;;;;;13.27;7.75;;;8.60;99.90;;;;;;4971592;28;20040;-86
2021/12/15 11:15:11;;;;;;;15.93;7.50;;;8.50;99.90;;;;;;4964313;29;20023;-85
2021/12/15 11:17:50;;;;;;;13.45;7.57;;;8.60;99.90;;;;;;4962870;28;20043;-84
2021/12/15 11:20:34;;;;;;;14.82;7.20;;;8.60;99.90;;;;;;4966691;28;20083;-86
2021/12/15 11:23:04;;;;;;;15.63;8.15;;;8.60;99.90;;;;;;4966515;29;20095;-84
2021/12/15 11:25:36;;;;;;;13.00;7.00;;;8.50;99.90;;;;;;4966086;28;20028;-86
2021/12/15 11:28:06;;;;;;;12.85;7.47;;;8.50;99.90;;;;;;4952070;29;20039;-85
2021/12/15 11:30:41;;;;;;;14.77;8.20;;;8.50;99.90;;;;;;4971874;29;20051;-86
2021/12/15 11:33:17;;;;;;;14.23;8.20;;;8.40;99.90;;;;;;4965923;28;20067;-84
2021/12/15 11:36:14;;;;;;;16.88;8.30;;;8.40;99.90;;;;;;4974002;28;20062;-85
2021/12/15 11:38:49;;;;;;;14.15;7.97;;;8.40;99.90;;;;;;4961156;29;20043;-87
2021/12/15 11:41:18;;;;;;;15.63;8.82;;;8.40;99.90;;;;;;4964921;28;20063;-85
2021/12/15 11:43:58;;;;;;;12.68;7.50;;;8.40;99.90;;;;;;4963417;29;20031;-84
2021/12/15 11:46:34;;;;;;;15.00;8.05;;;8.50;99.90;;;;;;4973620;29;20118;-82
2021/12/15 11:49:05;;;;;;;13.25;7.95;;;8.50;99.90;;;;;;4973190;28;20027;-84
2021/12/15 11:51:45;;;;;;;12.82;7.53;;;8.40;99.90;;;;;;4973138;28;20607;-83
2021/12/15 11:54:28;;;;;;;22.75;8.05;;;8.50;99.90;;;;;;4973814;28;20034;-85
2021/12/15 11:57:04;;;;;;;13.73;7.57;;;8.50;99.90;;;;;;4972008;28;20023;-84
2021/12/15 11:59:37;;;;;;;14.38;8.10;;;8.70;99.90;;;;;;4974942;28;20577;-82
2021/12/15 12:02:06;;;;;;;;;;;8.80;99.90;;;;;;4957532;29;20143;-84
2021/12/15 12:04:34;;;;;;;15.60;7.40;;;8.90;99.90;;;;;;4977455;28;19895;-86
2021/12/15 12:07:24;;;;;;;13.77;7.15;;;9.00;99.90;;;;;;4974809;28;20047;-85
2021/12/15 12:10:03;;;;;;;13.70;7.47;;;8.90;99.90;;;;;;4963149;29;20522;-86
2021/12/15 12:12:36;;;;;;;11.93;7.65;;;8.90;99.90;;;;;;4969889;28;20182;-84
2021/12/15 12:15:15;;;;;;;11.43;7.07;;;8.90;99.90;;;;;;4976317;29;20039;-83
2021/12/15 12:17:45;;;;;;;13.32;7.38;;;9.00;99.90;;;;;;4969635;28;20031;-84
2021/12/15 12:20:17;;;;;;;11.40;7.45;;;9.00;99.90;;;;;;4975433;28;20035;-86
2021/12/15 12:22:45;;;;;;;18.35;8.25;;;9.00;99.90;;;;;;4969403;28;20027;-84
2021/12/15 12:25:20;;;;;;;13.73;7.88;;;9.00;99.90;;;;;;4973312;28;20023;-84
2021/12/15 12:27:47;;;;;;;18.02;8.75;;;9.00;99.90;;;;;;4964753;28;20307;-84
2021/12/15 12:30:39;;;;;;;21.35;8.13;;;9.00;99.90;;;;;;4961615;28;20708;-85
2021/12/15 12:33:09;;;;;;;13.65;7.90;;;9.00;99.90;;;;;;4971365;28;20032;-85
2021/12/15 12:35:48;;;;;;;12.88;7.85;;;9.00;99.90;;;;;;4963830;29;20039;-84
2021/12/15 12:38:21;;;;;;;10.88;7.47;;;9.10;99.90;;;;;;4966956;28;20027;-86
2021/12/15 12:40:55;;;;;;;13.75;7.45;;;9.30;99.90;;;;;;4964810;28;20027;-86
2021/12/15 12:43:32;;;;;;;15.27;7.50;;;9.40;99.90;;;;;;4972381;28;20680;-84
2021/12/15 12:46:10;;;;;;;25.38;8.80;;;9.40;99.90;;;;;;4974764;28;20032;-84
2021/12/15 12:48:53;;;;;;;17.50;7.70;;;9.40;99.90;;;;;;4970772;28;20467;-86
2021/12/15 12:59:46;;;;;;;13.30;7.20;;;9.50;99.90;;;;;;4978849;28;20054;-84
2021/12/15 13:02:48;;;;;;;16.77;7.38;;;9.40;99.90;;;;;;4964545;28;20055;-87
2021/12/15 13:05:39;;;;;;;14.38;7.22;;;9.30;99.90;;;;;;4965763;29;20079;-84
2021/12/15 13:08:28;;;;;;;20.63;7.95;;;9.20;99.90;;;;;;5003913;23;20038;-84
2021/12/15 13:11:00;;;;;;;17.33;6.88;;;9.10;99.90;;;;;;4993452;28;20041;-85
2021/12/15 13:13:29;;;;;;;13.32;6.60;;;9.20;99.90;;;;;;4994963;28;20034;-86
2021/12/15 13:16:06;;;;;;;11.63;6.80;;;9.10;99.90;;;;;;5002702;28;20015;-89
2021/12/15 13:18:53;;;;;;;12.95;6.82;;;9.10;99.90;;;;;;4990900;28;20424;-88
2021/12/15 13:30:52;;;;;;;14.02;6.40;;;8.80;99.90;;;;;;5008382;28;20039;-90
2021/12/15 13:33:29;;;;;;;14.23;6.72;;;8.70;99.90;;;;;;5011619;28;20031;-91
2021/12/15 13:36:08;;;;;;;13.00;6.57;;;8.70;99.90;;;;;;5005042;28;20026;-92
2021/12/15 13:38:47;;;;;;;10.88;6.60;;;8.60;99.90;;;;;;4989370;28;20027;-89
2021/12/15 13:41:41;;;;;;;12.85;6.85;;;8.60;99.90;;;;;;5004526;28;20058;-88
2021/12/15 13:44:47;;;;;;;13.00;6.55;;;8.60;99.90;;;;;;5014775;28;20174;-89
2021/12/15 13:47:25;;;;;;;16.60;7.32;;;8.60;99.90;;;;;;5011661;28;20010;-91
2021/12/15 13:49:53;;;;;;;11.20;6.88;;;8.50;99.90;;;;;;5009722;28;20054;-90
2021/12/15 13:52:39;;;;;;;12.27;7.22;;;8.50;99.90;;;;;;4996970;28;20018;-89
2021/12/15 13:55:27;;;;;;;13.65;6.72;;;8.50;99.90;;;;;;5019720;28;20022;-89
2021/12/15 13:58:05;;;;;;;11.98;6.68;;;8.50;99.90;;;;;;5016764;28;20133;-89
2021/12/15 14:00:54;;;;;;;16.75;6.68;;;8.50;99.90;;;;;;5008497;28;20030;-89
2021/12/15 14:03:31;;;;;;;13.18;6.90;;;8.40;99.90;;;;;;5008109;28;20050;-87
2021/12/15 14:06:03;;;;;;;12.63;7.30;;;8.40;99.90;;;;;;5014593;28;20030;-88
2021/12/15 14:08:45;;;;;;;12.07;7.40;;;8.30;99.90;;;;;;5004975;28;20035;-88
2021/12/15 14:11:20;;;;;;;12.43;7.13;;;8.30;99.90;;;;;;5006318;28;20023;-88
2021/12/15 14:13:58;;;;;;;20.83;12.20;;;8.20;99.90;;;;;;5010075;28;20094;-90
2021/12/15 14:16:36;;;;;;;12.75;7.65;;;8.20;99.90;;;;;;5011456;28;20034;-86
2021/12/15 14:19:07;;;;;;;14.48;7.18;;;8.20;99.90;;;;;;5008604;28;20031;-87
2021/12/15 14:21:34;;;;;;;13.23;7.35;;;8.20;99.90;;;;;;5015728;28;20034;-86
2021/12/15 14:24:00;;;;;;;11.68;6.95;;;8.20;99.90;;;;;;5017176;28;20027;-88
2021/12/15 14:26:33;;;;;;;12.75;6.50;;;8.20;99.90;;;;;;5011666;28;20057;-87
2021/12/15 14:29:10;;;;;;;12.20;7.07;;;8.20;99.90;;;;;;5016770;28;20014;-89
2021/12/15 14:31:39;;;;;;;11.60;6.95;;;8.20;99.90;;;;;;5013489;28;20542;-88
2021/12/15 14:34:14;;;;;;;12.50;7.20;;;8.20;99.90;;;;;;4998800;28;20545;-88
2021/12/15 14:36:53;;;;;;;15.88;7.90;;;8.20;99.90;;;;;;4989195;28;20226;-89
2021/12/15 14:39:27;;;;;;;15.55;7.93;;;8.20;99.90;;;;;;5002824;28;20160;-89